Terminal Aerodrome Forecast
Issued by NWS

Home | Current Version | Previous Version | Text Only | Print | Product List | Glossary On
Versions: 1 2 3 4 5 6 7 8 9 10 11 12 13 14 15 16 17 18 19 20 21 22 23 24
000
FTUS43 KDLH 022340
TAFBRD
TAF
KBRD 022340Z 0300/0324 11006KT P6SM SCT025
     FM030700 12003KT 3SM BR SCT020 BKN025
      TEMPO 0308/0310 1 1/2SM BR
     FM031000 10003KT 1/2SM FG OVC006
     FM031500 12008KT P6SM SKC=

USA.gov is the U.S. government's official web portal to all federal, state and local government web resources and services.